Time;durP1;ratioP1;P1;durP2;ratioP2;P2;SDS_P1;SDS_P2;PMS_P1;PMS_P2;Temp;Humidity;BMP_temperature;BMP_pressure;BME280_temperature;BME280_humidity;BME280_pressure;Samples;Min_cycle;Max_cycle;Signal;HPM_P1;HPM_P2
2023/07/05 00:01:41;;;;;;;17.88;11.38;;;;;;;;;;4950747;28;20113;-71
2023/07/05 00:04:08;;;;;;;18.45;11.90;;;;;;;;;;4952053;28;20035;-71
2023/07/05 00:06:33;;;;;;;18.25;11.10;;;;;;;;;;4952696;28;20078;-71
2023/07/05 00:08:58;;;;;;;17.33;11.55;;;;;;;;;;4952789;28;20038;-70
2023/07/05 00:11:23;;;;;;;15.57;10.90;;;;;;;;;;4955002;28;20093;-71
2023/07/05 00:13:49;;;;;;;17.00;10.70;;;;;;;;;;4918178;28;20097;-70
2023/07/05 00:16:16;;;;;;;17.73;10.75;;;;;;;;;;4927933;28;20086;-70
2023/07/05 00:18:42;;;;;;;15.75;9.63;;;;;;;;;;4953451;28;20073;-71
2023/07/05 00:21:08;;;;;;;15.05;10.55;;;;;;;;;;4944138;28;20031;-70
2023/07/05 00:23:34;;;;;;;14.80;10.25;;;;;;;;;;4944913;28;20050;-71
2023/07/05 00:26:00;;;;;;;16.80;10.48;;;;;;;;;;4943549;28;20038;-70
2023/07/05 00:28:25;;;;;;;18.23;10.90;;;;;;;;;;4946933;28;20642;-70
2023/07/05 00:30:51;;;;;;;19.60;11.27;;;;;;;;;;4949280;28;20051;-70
2023/07/05 00:33:16;;;;;;;15.30;10.73;;;;;;;;;;4952775;28;20130;-70
2023/07/05 00:35:49;;;;;;;16.83;11.10;;;;;;;;;;4949586;28;20031;-70
2023/07/05 00:38:14;;;;;;;17.27;11.15;;;;;;;;;;4951730;28;20035;-72
2023/07/05 00:40:39;;;;;;;18.50;11.15;;;;;;;;;;4957453;28;20034;-71
2023/07/05 00:43:05;;;;;;;22.88;12.25;;;;;;;;;;4949297;28;20113;-71
2023/07/05 00:45:48;;;;;;;22.00;12.57;;;;;;;;;;4953587;28;20031;-72
2023/07/05 00:48:14;;;;;;;20.95;11.98;;;;;;;;;;4948182;28;20046;-72
2023/07/05 00:50:40;;;;;;;21.85;12.38;;;;;;;;;;4953554;28;20042;-71
2023/07/05 00:53:06;;;;;;;20.27;12.30;;;;;;;;;;4947908;28;20043;-72
2023/07/05 00:55:32;;;;;;;21.67;13.38;;;;;;;;;;4948694;28;20125;-71
2023/07/05 00:58:00;;;;;;;21.65;13.40;;;;;;;;;;4946255;28;20051;-71
2023/07/05 01:00:25;;;;;;;26.45;14.68;;;;;;;;;;4947516;28;20850;-71
2023/07/05 01:02:54;;;;;;;20.85;14.45;;;;;;;;;;4951207;28;20051;-72
2023/07/05 01:05:19;;;;;;;22.17;14.48;;;;;;;;;;4949767;28;20122;-71
2023/07/05 01:07:46;;;;;;;22.13;14.23;;;;;;;;;;4947534;28;20048;-71
2023/07/05 01:10:22;;;;;;;22.20;14.40;;;;;;;;;;4922469;28;20530;-69
2023/07/05 01:13:19;;;;;;;22.30;14.52;;;;;;;;;;4942828;28;20121;-70
2023/07/05 01:16:13;;;;;;;26.42;15.73;;;;;;;;;;4906169;28;20034;-69
2023/07/05 01:19:03;;;;;;;27.98;16.13;;;;;;;;;;4945308;28;20038;-72
2023/07/05 01:21:48;;;;;;;24.17;15.63;;;;;;;;;;4934969;28;20091;-71
2023/07/05 01:24:16;;;;;;;23.08;14.85;;;;;;;;;;4942416;28;20050;-68
2023/07/05 01:27:04;;;;;;;25.23;15.82;;;;;;;;;;4920357;28;20116;-70
2023/07/05 01:29:56;;;;;;;30.50;17.30;;;;;;;;;;4942490;28;20031;-69
2023/07/05 01:32:31;;;;;;;28.30;17.02;;;;;;;;;;4941013;28;20041;-71
2023/07/05 01:35:04;;;;;;;20.60;14.25;;;;;;;;;;4939035;28;20148;-71
2023/07/05 01:37:35;;;;;;;18.92;13.02;;;;;;;;;;4947056;28;20047;-70
2023/07/05 01:40:10;;;;;;;20.00;14.55;;;;;;;;;;4951267;28;20039;-70
2023/07/05 01:42:36;;;;;;;21.13;13.98;;;;;;;;;;4938596;28;20081;-66
2023/07/05 01:45:06;;;;;;;22.70;15.48;;;;;;;;;;4933961;28;20030;-71
2023/07/05 01:47:35;;;;;;;20.52;13.07;;;;;;;;;;4936108;28;20049;-68
2023/07/05 01:50:08;;;;;;;21.83;13.90;;;;;;;;;;4940342;28;20050;-68
2023/07/05 01:52:51;;;;;;;28.38;15.55;;;;;;;;;;4945095;28;20031;-66
2023/07/05 01:55:26;;;;;;;20.90;11.00;;;;;;;;;;4932376;28;20439;-71
2023/07/05 01:58:07;;;;;;;18.98;10.88;;;;;;;;;;4940822;28;20589;-66
2023/07/05 02:00:33;;;;;;;15.23;8.40;;;;;;;;;;4930480;28;20057;-68
2023/07/05 02:03:01;;;;;;;12.90;7.22;;;;;;;;;;4923686;28;20058;-68
2023/07/05 02:05:28;;;;;;;10.82;6.18;;;;;;;;;;4940508;28;20168;-68
2023/07/05 02:07:54;;;;;;;15.27;6.70;;;;;;;;;;4939497;28;20058;-66
2023/07/05 02:10:21;;;;;;;10.68;6.10;;;;;;;;;;4917940;28;20042;-67
2023/07/05 02:12:46;;;;;;;26.42;12.73;;;;;;;;;;4939240;28;20043;-70
2023/07/05 02:15:12;;;;;;;21.98;9.63;;;;;;;;;;4921271;28;20506;-69
2023/07/05 02:17:37;;;;;;;19.42;5.57;;;;;;;;;;4917531;28;20178;-71
2023/07/05 02:20:03;;;;;;;22.95;7.30;;;;;;;;;;4939296;28;20041;-71
2023/07/05 02:22:31;;;;;;;16.80;3.30;;;;;;;;;;4941373;28;20490;-72
2023/07/05 02:24:56;;;;;;;17.27;4.97;;;;;;;;;;4941281;28;20031;-69
2023/07/05 02:27:21;;;;;;;19.67;4.05;;;;;;;;;;4937882;28;20126;-69
2023/07/05 02:29:47;;;;;;;10.23;3.45;;;;;;;;;;4940545;28;20054;-70
2023/07/05 02:32:14;;;;;;;13.07;2.83;;;;;;;;;;4937145;28;20049;-70
2023/07/05 02:34:40;;;;;;;15.63;2.97;;;;;;;;;;4939622;28;20042;-70
2023/07/05 02:37:06;;;;;;;13.90;3.00;;;;;;;;;;4940535;28;20510;-70
2023/07/05 02:39:31;;;;;;;13.82;3.17;;;;;;;;;;4939860;28;20039;-70
2023/07/05 02:41:57;;;;;;;13.02;3.38;;;;;;;;;;4939626;28;20050;-69
2023/07/05 02:44:22;;;;;;;14.23;4.07;;;;;;;;;;4940633;28;20039;-70
2023/07/05 02:46:49;;;;;;;9.23;3.00;;;;;;;;;;4938552;28;20103;-67
2023/07/05 02:49:15;;;;;;;9.80;3.50;;;;;;;;;;4929512;28;20065;-67
2023/07/05 02:51:43;;;;;;;12.98;2.92;;;;;;;;;;4907731;28;20031;-71
2023/07/05 02:54:08;;;;;;;9.77;3.10;;;;;;;;;;4940212;28;20031;-66
2023/07/05 02:56:33;;;;;;;8.45;4.00;;;;;;;;;;4939769;28;20498;-69
2023/07/05 02:58:59;;;;;;;11.10;4.15;;;;;;;;;;4940420;28;20121;-65
2023/07/05 03:01:24;;;;;;;10.85;3.08;;;;;;;;;;4937824;28;20043;-68
2023/07/05 03:03:49;;;;;;;10.35;3.28;;;;;;;;;;4920941;28;20035;-64
2023/07/05 03:06:21;;;;;;;16.55;4.60;;;;;;;;;;4937126;28;20032;-69
2023/07/05 03:08:47;;;;;;;12.88;4.30;;;;;;;;;;4917483;28;20059;-68
2023/07/05 03:11:15;;;;;;;7.75;3.25;;;;;;;;;;4937765;28;20039;-66
2023/07/05 03:13:40;;;;;;;11.55;3.50;;;;;;;;;;4935018;28;20038;-69
2023/07/05 03:16:06;;;;;;;15.75;3.53;;;;;;;;;;4917293;28;20039;-67
2023/07/05 03:18:34;;;;;;;7.60;2.58;;;;;;;;;;4938508;28;20031;-69
2023/07/05 03:20:59;;;;;;;11.52;4.22;;;;;;;;;;4919630;28;20128;-67
2023/07/05 03:23:24;;;;;;;16.08;5.00;;;;;;;;;;4940055;28;20039;-67
2023/07/05 03:25:58;;;;;;;11.32;4.15;;;;;;;;;;4918646;28;20048;-67
2023/07/05 03:28:24;;;;;;;20.73;8.73;;;;;;;;;;4924227;28;20051;-66
2023/07/05 03:31:18;;;;;;;14.45;6.65;;;;;;;;;;4937752;28;20138;-68
2023/07/05 03:33:45;;;;;;;13.18;4.60;;;;;;;;;;4913856;28;20047;-66
2023/07/05 03:36:13;;;;;;;12.38;5.28;;;;;;;;;;4936004;28;20043;-68
2023/07/05 03:38:38;;;;;;;13.68;6.55;;;;;;;;;;4934321;28;20428;-66
2023/07/05 03:41:05;;;;;;;16.17;5.78;;;;;;;;;;4936237;28;20043;-67
2023/07/05 03:43:32;;;;;;;12.27;5.13;;;;;;;;;;4919329;28;20046;-69
2023/07/05 03:45:59;;;;;;;13.30;4.13;;;;;;;;;;4919771;28;20042;-68
2023/07/05 03:48:26;;;;;;;9.25;4.55;;;;;;;;;;4907841;28;20444;-65
2023/07/05 03:50:54;;;;;;;10.10;4.97;;;;;;;;;;4935293;28;20053;-66
2023/07/05 03:53:19;;;;;;;12.13;4.30;;;;;;;;;;4934812;28;20038;-68
2023/07/05 03:55:45;;;;;;;9.65;4.40;;;;;;;;;;4933656;28;20069;-68
2023/07/05 03:58:10;;;;;;;12.82;4.65;;;;;;;;;;4934917;28;20061;-66
2023/07/05 04:00:35;;;;;;;10.48;5.35;;;;;;;;;;4937175;28;20070;-66
2023/07/05 04:03:03;;;;;;;24.40;7.85;;;;;;;;;;4936806;28;20035;-71
2023/07/05 04:05:28;;;;;;;21.00;7.18;;;;;;;;;;4936024;28;20564;-71
2023/07/05 04:07:54;;;;;;;14.60;6.63;;;;;;;;;;4946730;28;20057;-77
2023/07/05 04:10:19;;;;;;;13.50;5.93;;;;;;;;;;4926956;28;20493;-80
2023/07/05 04:12:44;;;;;;;13.95;5.45;;;;;;;;;;4921627;28;20059;-72
2023/07/05 04:15:10;;;;;;;20.27;5.03;;;;;;;;;;4925846;28;20043;-71
2023/07/05 04:17:35;;;;;;;32.03;7.18;;;;;;;;;;4934087;28;20042;-71
2023/07/05 04:20:02;;;;;;;26.33;5.72;;;;;;;;;;4926750;28;20101;-75
2023/07/05 04:22:31;;;;;;;23.75;3.65;;;;;;;;;;4923262;28;20031;-74
2023/07/05 04:24:57;;;;;;;25.35;3.70;;;;;;;;;;4938135;28;20046;-72
2023/07/05 04:27:22;;;;;;;34.35;4.55;;;;;;;;;;4916995;28;20070;-70
2023/07/05 04:29:48;;;;;;;28.80;4.22;;;;;;;;;;4935511;28;20729;-72
2023/07/05 04:32:16;;;;;;;40.78;5.55;;;;;;;;;;4936013;28;20516;-72
2023/07/05 04:34:44;;;;;;;25.30;3.85;;;;;;;;;;4926279;28;20210;-73
2023/07/05 04:37:09;;;;;;;28.63;4.43;;;;;;;;;;4909469;28;20035;-74
2023/07/05 04:39:35;;;;;;;37.85;4.38;;;;;;;;;;4935997;28;20046;-71
2023/07/05 04:42:00;;;;;;;26.58;3.95;;;;;;;;;;4906075;28;20045;-71
2023/07/05 04:44:27;;;;;;;34.75;5.18;;;;;;;;;;4935469;28;20027;-74
2023/07/05 04:46:55;;;;;;;22.02;4.00;;;;;;;;;;4931272;28;20156;-71
2023/07/05 04:49:20;;;;;;;27.27;4.38;;;;;;;;;;4927923;28;20648;-72
2023/07/05 04:51:46;;;;;;;20.85;3.10;;;;;;;;;;4936072;28;20026;-71
2023/07/05 04:54:12;;;;;;;28.27;4.88;;;;;;;;;;4909557;28;20090;-70
2023/07/05 04:56:38;;;;;;;28.80;4.53;;;;;;;;;;4934454;28;20081;-70
2023/07/05 04:59:06;;;;;;;20.83;4.95;;;;;;;;;;4933428;28;20051;-73
2023/07/05 05:01:32;;;;;;;29.20;5.43;;;;;;;;;;4931465;28;20039;-74
2023/07/05 05:03:57;;;;;;;27.25;4.65;;;;;;;;;;4938677;28;20039;-70
2023/07/05 05:06:22;;;;;;;25.98;4.43;;;;;;;;;;4933450;28;20054;-70
2023/07/05 05:08:50;;;;;;;29.80;4.80;;;;;;;;;;4922386;28;20121;-70
2023/07/05 05:11:16;;;;;;;23.48;4.85;;;;;;;;;;4933152;28;20039;-69
2023/07/05 05:13:44;;;;;;;25.08;4.00;;;;;;;;;;4931297;28;20036;-68
2023/07/05 05:16:09;;;;;;;15.60;3.35;;;;;;;;;;4917596;28;20083;-67
2023/07/05 05:18:37;;;;;;;28.63;4.35;;;;;;;;;;4915285;28;20043;-68
2023/07/05 05:21:02;;;;;;;34.03;5.60;;;;;;;;;;4932160;28;20164;-69
2023/07/05 05:23:29;;;;;;;38.58;5.57;;;;;;;;;;4927770;28;20061;-67
2023/07/05 05:25:54;;;;;;;43.15;6.38;;;;;;;;;;4932491;28;20046;-68
2023/07/05 05:28:20;;;;;;;29.83;4.38;;;;;;;;;;4898520;28;20059;-69
2023/07/05 05:30:48;;;;;;;30.58;5.30;;;;;;;;;;4893805;28;20093;-67
2023/07/05 05:33:14;;;;;;;34.85;4.50;;;;;;;;;;4909626;28;20081;-68
2023/07/05 05:35:45;;;;;;;21.88;3.88;;;;;;;;;;4915851;28;20045;-66
2023/07/05 05:38:10;;;;;;;23.83;4.18;;;;;;;;;;4925146;28;20132;-71
2023/07/05 05:40:36;;;;;;;36.05;5.70;;;;;;;;;;4927017;28;20034;-81
2023/07/05 05:43:01;;;;;;;41.38;6.72;;;;;;;;;;4910074;28;20077;-74
2023/07/05 05:45:26;;;;;;;40.55;9.45;;;;;;;;;;4913494;28;20157;-81
2023/07/05 05:47:52;;;;;;;33.80;6.28;;;;;;;;;;4923456;28;20042;-74
2023/07/05 05:50:21;;;;;;;45.58;7.30;;;;;;;;;;4917143;28;20102;-71
2023/07/05 05:52:47;;;;;;;56.33;9.95;;;;;;;;;;4936469;28;20035;-75
2023/07/05 05:55:12;;;;;;;54.63;11.05;;;;;;;;;;4937420;28;20036;-79
2023/07/05 05:57:37;;;;;;;36.60;7.68;;;;;;;;;;4927883;28;20137;-75
2023/07/05 06:00:03;;;;;;;48.00;9.35;;;;;;;;;;4940443;28;20050;-79
2023/07/05 06:02:28;;;;;;;57.88;13.05;;;;;;;;;;4935801;28;20500;-79
2023/07/05 06:04:54;;;;;;;52.20;11.85;;;;;;;;;;4939707;28;20516;-76
2023/07/05 06:07:19;;;;;;;56.03;12.02;;;;;;;;;;4917758;28;20043;-74
2023/07/05 06:09:47;;;;;;;69.80;12.73;;;;;;;;;;4935073;28;20408;-76
2023/07/05 06:12:12;;;;;;;105.32;13.20;;;;;;;;;;4920464;28;20031;-76
2023/07/05 06:14:38;;;;;;;95.38;14.65;;;;;;;;;;4938638;28;20031;-75
2023/07/05 06:17:06;;;;;;;119.40;17.90;;;;;;;;;;4933112;28;20047;-71
2023/07/05 06:19:32;;;;;;;102.25;15.75;;;;;;;;;;4906356;28;20615;-70
2023/07/05 06:21:58;;;;;;;110.03;16.17;;;;;;;;;;4921374;28;20146;-70
2023/07/05 06:24:24;;;;;;;112.30;17.00;;;;;;;;;;4930594;28;20034;-76
2023/07/05 06:26:49;;;;;;;121.82;19.13;;;;;;;;;;4898884;28;20249;-74
2023/07/05 06:29:14;;;;;;;140.27;20.05;;;;;;;;;;4904373;28;20042;-73
2023/07/05 06:31:39;;;;;;;117.20;18.05;;;;;;;;;;4918130;28;20047;-73
2023/07/05 06:34:05;;;;;;;96.00;16.70;;;;;;;;;;4915113;28;20526;-69
2023/07/05 06:36:36;;;;;;;121.95;19.80;;;;;;;;;;4933417;28;20617;-71
2023/07/05 06:39:01;;;;;;;96.75;15.13;;;;;;;;;;4933236;28;20045;-72
2023/07/05 06:41:27;;;;;;;119.00;19.15;;;;;;;;;;4933569;28;20047;-71
2023/07/05 06:43:52;;;;;;;106.28;19.63;;;;;;;;;;4933727;28;20046;-72
2023/07/05 06:46:20;;;;;;;128.43;19.95;;;;;;;;;;4932480;28;20132;-79
2023/07/05 06:48:50;;;;;;;105.35;16.25;;;;;;;;;;4930323;28;22415;-73
2023/07/05 06:51:16;;;;;;;118.70;19.67;;;;;;;;;;4933799;28;20031;-74
2023/07/05 06:53:42;;;;;;;114.57;19.13;;;;;;;;;;4936658;28;20038;-72
2023/07/05 06:56:09;;;;;;;79.70;13.52;;;;;;;;;;4934266;28;20081;-72
2023/07/05 06:58:35;;;;;;;97.70;16.38;;;;;;;;;;4934462;28;20043;-69
2023/07/05 07:01:00;;;;;;;93.75;16.20;;;;;;;;;;4918129;28;20086;-74
2023/07/05 07:03:25;;;;;;;104.40;17.75;;;;;;;;;;4922200;28;20038;-77
2023/07/05 07:05:52;;;;;;;98.13;15.48;;;;;;;;;;4935325;28;20396;-71
2023/07/05 07:08:18;;;;;;;99.85;16.45;;;;;;;;;;4932638;28;20057;-69
2023/07/05 07:10:45;;;;;;;100.15;15.32;;;;;;;;;;4934793;28;20411;-71
2023/07/05 07:13:11;;;;;;;110.30;16.50;;;;;;;;;;4936429;28;20038;-80
2023/07/05 07:15:36;;;;;;;96.65;16.38;;;;;;;;;;4934166;28;20047;-75
2023/07/05 07:18:02;;;;;;;124.28;18.23;;;;;;;;;;4936094;28;20034;-74
2023/07/05 07:20:27;;;;;;;97.65;15.02;;;;;;;;;;4919601;28;20039;-77
2023/07/05 07:22:53;;;;;;;98.53;15.50;;;;;;;;;;4934306;28;20074;-75
2023/07/05 07:25:18;;;;;;;87.05;13.45;;;;;;;;;;4918496;28;20049;-76
2023/07/05 07:27:44;;;;;;;72.32;12.38;;;;;;;;;;4934675;28;20039;-75
2023/07/05 07:30:10;;;;;;;89.05;14.98;;;;;;;;;;4934065;28;20050;-82
2023/07/05 07:32:35;;;;;;;79.53;12.23;;;;;;;;;;4937498;28;20074;-76
2023/07/05 07:35:01;;;;;;;76.40;12.77;;;;;;;;;;4919270;28;20039;-75
2023/07/05 07:37:26;;;;;;;107.10;16.67;;;;;;;;;;4933181;28;20031;-72
2023/07/05 07:39:51;;;;;;;83.75;12.80;;;;;;;;;;4934027;28;20042;-74
2023/07/05 07:42:19;;;;;;;81.35;13.15;;;;;;;;;;4932849;28;20071;-78
2023/07/05 07:44:47;;;;;;;74.30;12.95;;;;;;;;;;4934433;28;20027;-77
2023/07/05 07:47:17;;;;;;;73.18;12.13;;;;;;;;;;4935347;28;20554;-74
2023/07/05 07:49:42;;;;;;;102.60;13.82;;;;;;;;;;4932248;28;20042;-77
2023/07/05 07:52:10;;;;;;;97.78;14.40;;;;;;;;;;4933944;28;20110;-77
2023/07/05 07:54:36;;;;;;;93.10;14.70;;;;;;;;;;4922695;28;20043;-85
2023/07/05 07:57:01;;;;;;;76.65;12.77;;;;;;;;;;4925528;28;22682;-75
2023/07/05 07:59:27;;;;;;;85.55;13.80;;;;;;;;;;4937178;28;20038;-80
2023/07/05 08:01:54;;;;;;;83.55;13.27;;;;;;;;;;4933929;28;20051;-75
2023/07/05 08:04:20;;;;;;;89.55;15.30;;;;;;;;;;4931404;28;20035;-75
2023/07/05 08:06:46;;;;;;;84.68;13.40;;;;;;;;;;4913874;28;20095;-75
2023/07/05 08:09:13;;;;;;;90.20;12.95;;;;;;;;;;4921851;28;20043;-76
2023/07/05 08:11:39;;;;;;;71.68;10.57;;;;;;;;;;4936857;28;20032;-78
2023/07/05 08:14:04;;;;;;;87.35;12.55;;;;;;;;;;4931511;28;20062;-82
2023/07/05 08:16:30;;;;;;;78.18;13.25;;;;;;;;;;4934945;28;20736;-78
2023/07/05 08:18:57;;;;;;;55.03;10.57;;;;;;;;;;4939773;28;20039;-73
2023/07/05 08:21:22;;;;;;;62.15;10.27;;;;;;;;;;4935106;28;22321;-76
2023/07/05 08:23:47;;;;;;;52.08;9.30;;;;;;;;;;4922374;28;20038;-79
2023/07/05 08:26:13;;;;;;;72.53;12.20;;;;;;;;;;4941358;28;20038;-80
2023/07/05 08:28:38;;;;;;;70.53;10.68;;;;;;;;;;4939620;28;20039;-81
2023/07/05 08:31:04;;;;;;;68.60;10.20;;;;;;;;;;4943388;28;20078;-81
2023/07/05 08:33:31;;;;;;;53.22;9.48;;;;;;;;;;4924587;28;20035;-81
2023/07/05 08:36:14;;;;;;;78.75;12.70;;;;;;;;;;4942399;28;20041;-76
2023/07/05 08:38:41;;;;;;;65.43;11.65;;;;;;;;;;4941080;28;20442;-82
2023/07/05 08:41:16;;;;;;;73.72;12.88;;;;;;;;;;4944641;28;20158;-83
2023/07/05 08:43:45;;;;;;;61.28;11.77;;;;;;;;;;4935658;28;22179;-77
2023/07/05 08:46:12;;;;;;;60.17;9.90;;;;;;;;;;4918191;28;20039;-75
2023/07/05 08:48:37;;;;;;;50.58;9.05;;;;;;;;;;4935743;28;20062;-81
2023/07/05 08:51:04;;;;;;;48.13;9.38;;;;;;;;;;4939619;28;20067;-78
2023/07/05 08:53:29;;;;;;;59.83;10.55;;;;;;;;;;4922727;28;20132;-76
2023/07/05 08:56:04;;;;;;;60.95;11.38;;;;;;;;;;4945066;28;20075;-82
2023/07/05 08:58:44;;;;;;;51.53;9.90;;;;;;;;;;4923368;28;20047;-79
2023/07/05 09:01:11;;;;;;;52.38;8.38;;;;;;;;;;4935883;28;20047;-81
2023/07/05 09:03:39;;;;;;;61.72;10.40;;;;;;;;;;4925468;28;20035;-78
2023/07/05 09:06:09;;;;;;;63.25;11.25;;;;;;;;;;4936619;28;20035;-75
2023/07/05 09:08:42;;;;;;;47.58;9.68;;;;;;;;;;4938686;28;20692;-75
2023/07/05 09:11:31;;;;;;;50.97;9.80;;;;;;;;;;4935676;28;20038;-80
2023/07/05 09:14:06;;;;;;;59.45;9.98;;;;;;;;;;4912123;28;20116;-72
2023/07/05 09:16:39;;;;;;;45.17;8.55;;;;;;;;;;4918692;28;20595;-82
2023/07/05 09:19:07;;;;;;;50.63;9.20;;;;;;;;;;4937003;28;20043;-77
2023/07/05 09:21:35;;;;;;;49.33;8.57;;;;;;;;;;4936094;28;20035;-74
2023/07/05 09:24:26;;;;;;;44.42;8.68;;;;;;;;;;4917072;28;20035;-77
2023/07/05 09:26:53;;;;;;;48.40;9.23;;;;;;;;;;4911206;28;20083;-73
2023/07/05 09:29:40;;;;;;;43.13;8.75;;;;;;;;;;4914353;28;20042;-85
2023/07/05 09:32:14;;;;;;;47.67;9.02;;;;;;;;;;4924616;28;20031;-77
2023/07/05 09:34:42;;;;;;;48.15;9.43;;;;;;;;;;4921931;28;20664;-79
2023/07/05 09:37:21;;;;;;;42.03;7.47;;;;;;;;;;4938290;28;20118;-74
2023/07/05 09:39:58;;;;;;;40.72;7.75;;;;;;;;;;4939204;28;20039;-73
2023/07/05 09:42:28;;;;;;;37.67;7.22;;;;;;;;;;4921185;28;21815;-78
2023/07/05 09:44:56;;;;;;;47.47;8.57;;;;;;;;;;4934166;28;20039;-75
2023/07/05 09:47:23;;;;;;;49.05;8.50;;;;;;;;;;4922358;28;20878;-80
2023/07/05 09:49:48;;;;;;;58.38;9.88;;;;;;;;;;4920762;28;20031;-84
2023/07/05 09:52:15;;;;;;;52.78;8.75;;;;;;;;;;4937309;28;20061;-74
2023/07/05 09:54:41;;;;;;;39.80;7.57;;;;;;;;;;4928660;28;20031;-84
2023/07/05 09:57:09;;;;;;;46.38;8.68;;;;;;;;;;4948718;28;20039;-84
2023/07/05 09:59:35;;;;;;;48.55;8.73;;;;;;;;;;4922528;28;20039;-76
2023/07/05 10:02:14;;;;;;;47.58;9.07;;;;;;;;;;4939285;28;20117;-80
2023/07/05 10:04:44;;;;;;;38.10;8.10;;;;;;;;;;4943908;28;20052;-78
2023/07/05 10:07:20;;;;;;;50.15;8.07;;;;;;;;;;4936787;28;20117;-80
2023/07/05 10:09:56;;;;;;;52.67;8.63;;;;;;;;;;4942658;28;20035;-76
2023/07/05 10:12:26;;;;;;;30.10;6.60;;;;;;;;;;4925761;28;20035;-77
2023/07/05 10:14:55;;;;;;;38.75;7.35;;;;;;;;;;4923412;28;20807;-79
2023/07/05 10:17:20;;;;;;;37.40;8.63;;;;;;;;;;4941806;28;20578;-77
2023/07/05 10:19:50;;;;;;;51.13;8.52;;;;;;;;;;4938292;28;20045;-78
2023/07/05 10:22:34;;;;;;;40.45;7.03;;;;;;;;;;4925880;28;20043;-83
2023/07/05 10:25:03;;;;;;;41.85;7.60;;;;;;;;;;4913323;28;20035;-82
2023/07/05 10:27:40;;;;;;;54.60;9.45;;;;;;;;;;4926771;28;20062;-87
2023/07/05 10:30:08;;;;;;;50.00;8.63;;;;;;;;;;4923189;28;20031;-79
2023/07/05 10:32:33;;;;;;;43.47;8.50;;;;;;;;;;4922464;28;20509;-78
2023/07/05 10:34:59;;;;;;;35.15;6.72;;;;;;;;;;4919439;28;20035;-79
2023/07/05 10:37:28;;;;;;;29.05;6.18;;;;;;;;;;4941491;28;20034;-76
2023/07/05 10:39:54;;;;;;;45.25;7.50;;;;;;;;;;4941243;28;20038;-78
2023/07/05 10:42:24;;;;;;;33.95;7.05;;;;;;;;;;4939508;28;20128;-82
2023/07/05 10:44:50;;;;;;;46.08;8.07;;;;;;;;;;4943565;28;20049;-85
2023/07/05 10:47:15;;;;;;;35.17;6.53;;;;;;;;;;4943849;28;20499;-79
2023/07/05 10:49:43;;;;;;;29.42;6.68;;;;;;;;;;4931051;28;20030;-81
2023/07/05 10:52:15;;;;;;;33.03;7.82;;;;;;;;;;4947696;28;20032;-78
2023/07/05 10:54:43;;;;;;;35.97;6.93;;;;;;;;;;4946688;28;20085;-84
2023/07/05 10:57:15;;;;;;;38.63;6.95;;;;;;;;;;4929687;28;20110;-77
2023/07/05 10:59:45;;;;;;;34.88;7.53;;;;;;;;;;4922377;28;20050;-74
2023/07/05 11:02:17;;;;;;;43.85;7.50;;;;;;;;;;4922538;28;20033;-77
2023/07/05 11:04:43;;;;;;;;;;;;;;;;;;4943566;28;20135;-77
2023/07/05 11:07:10;;;;;;;47.63;7.38;;;;;;;;;;4939533;28;19926;-79
2023/07/05 11:09:36;;;;;;;39.40;8.27;;;;;;;;;;4943354;28;20046;-81
2023/07/05 11:12:05;;;;;;;43.88;9.07;;;;;;;;;;4924141;28;20084;-82
2023/07/05 11:14:31;;;;;;;42.55;7.88;;;;;;;;;;4929723;28;20047;-84
2023/07/05 11:16:57;;;;;;;39.08;7.93;;;;;;;;;;4933539;28;20606;-84
2023/07/05 11:19:25;;;;;;;30.98;6.35;;;;;;;;;;4947245;28;20045;-81
2023/07/05 11:21:52;;;;;;;32.45;7.40;;;;;;;;;;4956842;28;20027;-82
2023/07/05 11:24:30;;;;;;;28.58;6.32;;;;;;;;;;4934001;28;20420;-81
2023/07/05 11:26:55;;;;;;;35.45;6.72;;;;;;;;;;4944771;28;20039;-79
2023/07/05 11:29:26;;;;;;;25.85;5.72;;;;;;;;;;4940761;28;20106;-82
2023/07/05 11:31:52;;;;;;;30.60;6.38;;;;;;;;;;4951020;28;20046;-83
2023/07/05 11:34:20;;;;;;;37.40;7.03;;;;;;;;;;4944048;28;20031;-78
2023/07/05 11:36:46;;;;;;;31.48;7.28;;;;;;;;;;4952503;28;20130;-80
2023/07/05 11:39:30;;;;;;;32.75;5.22;;;;;;;;;;4951799;28;20038;-81
2023/07/05 11:41:56;;;;;;;32.08;5.47;;;;;;;;;;4945444;28;20046;-82
2023/07/05 11:44:28;;;;;;;32.38;6.60;;;;;;;;;;4943656;28;20038;-87
2023/07/05 11:46:54;;;;;;;33.00;6.03;;;;;;;;;;4936588;28;20043;-83
2023/07/05 11:49:22;;;;;;;30.85;6.55;;;;;;;;;;4952612;28;20135;-81
2023/07/05 11:51:53;;;;;;;34.05;6.20;;;;;;;;;;4950191;28;20618;-84
2023/07/05 11:54:19;;;;;;;28.35;5.55;;;;;;;;;;4933595;28;20113;-77
2023/07/05 11:56:47;;;;;;;27.50;6.05;;;;;;;;;;4951409;28;20428;-82
2023/07/05 11:59:14;;;;;;;26.08;5.00;;;;;;;;;;4944257;28;20046;-80
2023/07/05 12:01:41;;;;;;;28.10;5.47;;;;;;;;;;4947410;28;21142;-79
2023/07/05 12:04:10;;;;;;;34.97;6.63;;;;;;;;;;4940070;28;20134;-78
2023/07/05 12:06:40;;;;;;;26.17;6.22;;;;;;;;;;4923293;28;20054;-76
2023/07/05 12:09:14;;;;;;;32.53;7.80;;;;;;;;;;4929917;28;20042;-76
2023/07/05 12:11:40;;;;;;;26.95;5.43;;;;;;;;;;4949103;28;20086;-78
2023/07/05 12:14:09;;;;;;;27.73;5.38;;;;;;;;;;4951454;28;20031;-80
2023/07/05 12:16:35;;;;;;;36.70;5.75;;;;;;;;;;4948839;28;20168;-78
2023/07/05 12:19:01;;;;;;;24.88;5.50;;;;;;;;;;4947072;28;20036;-77
2023/07/05 12:21:31;;;;;;;22.00;5.68;;;;;;;;;;4921512;28;21034;-79
2023/07/05 12:23:56;;;;;;;29.83;5.28;;;;;;;;;;4949179;28;20121;-74
2023/07/05 12:26:24;;;;;;;21.45;4.85;;;;;;;;;;4957680;28;20113;-86
2023/07/05 12:28:51;;;;;;;31.98;5.35;;;;;;;;;;4942600;28;20050;-84
2023/07/05 12:31:19;;;;;;;30.23;5.53;;;;;;;;;;4936428;28;20038;-79
2023/07/05 12:33:50;;;;;;;27.10;5.57;;;;;;;;;;4947248;28;20047;-76
2023/07/05 12:36:16;;;;;;;29.42;5.35;;;;;;;;;;4949255;28;20046;-79
2023/07/05 12:38:45;;;;;;;24.00;4.82;;;;;;;;;;4952058;28;20046;-82
2023/07/05 12:41:15;;;;;;;25.38;5.15;;;;;;;;;;4960131;28;20039;-78
2023/07/05 12:43:40;;;;;;;19.15;4.50;;;;;;;;;;4956216;28;20484;-77
2023/07/05 12:46:05;;;;;;;37.15;5.32;;;;;;;;;;4936170;28;20085;-83
2023/07/05 12:48:31;;;;;;;27.17;5.05;;;;;;;;;;4947791;28;20035;-84
2023/07/05 12:51:02;;;;;;;20.75;4.55;;;;;;;;;;4938266;28;20035;-77
2023/07/05 12:53:27;;;;;;;22.42;3.80;;;;;;;;;;4950586;28;20142;-78
2023/07/05 12:55:57;;;;;;;15.90;4.43;;;;;;;;;;4957527;28;20529;-80
2023/07/05 12:58:24;;;;;;;23.38;5.10;;;;;;;;;;4944310;28;20051;-84
2023/07/05 13:00:50;;;;;;;29.75;5.05;;;;;;;;;;4943024;28;20038;-74
2023/07/05 13:03:16;;;;;;;15.60;3.30;;;;;;;;;;4939328;28;20050;-76
2023/07/05 13:05:42;;;;;;;17.23;3.53;;;;;;;;;;4953419;28;20046;-80
2023/07/05 13:08:09;;;;;;;26.80;5.50;;;;;;;;;;4938344;28;20463;-80
2023/07/05 13:10:36;;;;;;;27.85;4.85;;;;;;;;;;4947108;28;20066;-79
2023/07/05 13:13:22;;;;;;;33.85;5.93;;;;;;;;;;4934246;28;20065;-78
2023/07/05 13:15:48;;;;;;;25.30;4.63;;;;;;;;;;4943482;28;20634;-81
2023/07/05 13:18:27;;;;;;;20.55;4.30;;;;;;;;;;4948953;28;20035;-81
2023/07/05 13:21:14;;;;;;;17.13;4.15;;;;;;;;;;4941685;28;20077;-75
2023/07/05 13:23:43;;;;;;;25.80;4.80;;;;;;;;;;4940811;28;20055;-79
2023/07/05 13:26:17;;;;;;;23.13;4.13;;;;;;;;;;4949014;28;21118;-83
2023/07/05 13:28:44;;;;;;;21.65;4.95;;;;;;;;;;4960734;28;20140;-83
2023/07/05 13:31:17;;;;;;;24.30;4.30;;;;;;;;;;4946113;28;20189;-82
2023/07/05 13:33:43;;;;;;;27.38;5.00;;;;;;;;;;4946173;28;20042;-78
2023/07/05 13:36:08;;;;;;;26.70;4.85;;;;;;;;;;4937017;28;20101;-77
2023/07/05 13:38:35;;;;;;;24.50;4.53;;;;;;;;;;4923154;28;20142;-77
2023/07/05 13:41:03;;;;;;;26.15;5.07;;;;;;;;;;4933533;28;20035;-75
2023/07/05 13:43:31;;;;;;;18.70;5.00;;;;;;;;;;4932596;28;20041;-76
2023/07/05 13:45:57;;;;;;;20.35;3.80;;;;;;;;;;4908336;28;20145;-78
2023/07/05 13:48:23;;;;;;;21.98;4.40;;;;;;;;;;4931104;28;20073;-78
2023/07/05 13:50:48;;;;;;;21.98;4.10;;;;;;;;;;4936510;28;20697;-78
2023/07/05 13:53:19;;;;;;;15.55;3.83;;;;;;;;;;4900462;28;20109;-79
2023/07/05 13:55:44;;;;;;;17.02;4.10;;;;;;;;;;4933661;28;20062;-79
2023/07/05 13:58:11;;;;;;;19.65;4.40;;;;;;;;;;4927908;28;20534;-79
2023/07/05 14:00:37;;;;;;;18.63;4.15;;;;;;;;;;4934763;28;20137;-77
2023/07/05 14:03:03;;;;;;;22.13;4.20;;;;;;;;;;4930518;28;20035;-82
2023/07/05 14:05:28;;;;;;;26.70;4.72;;;;;;;;;;4935042;28;20039;-78
2023/07/05 14:07:58;;;;;;;26.40;5.15;;;;;;;;;;4919008;28;20038;-79
2023/07/05 14:10:24;;;;;;;13.88;4.63;;;;;;;;;;4934482;28;20043;-79
2023/07/05 14:12:50;;;;;;;16.85;4.15;;;;;;;;;;4928535;28;20092;-81
2023/07/05 14:15:34;;;;;;;22.52;4.43;;;;;;;;;;4926958;28;20075;-78
2023/07/05 14:17:59;;;;;;;17.20;4.28;;;;;;;;;;4930536;28;20031;-76
2023/07/05 14:20:27;;;;;;;15.60;3.92;;;;;;;;;;4934972;28;20888;-83
2023/07/05 14:22:54;;;;;;;24.40;3.80;;;;;;;;;;4915980;28;20110;-82
2023/07/05 14:25:20;;;;;;;15.25;3.88;;;;;;;;;;4920950;28;20050;-86
2023/07/05 14:27:45;;;;;;;13.93;3.58;;;;;;;;;;4940287;28;20090;-85
2023/07/05 14:30:11;;;;;;;17.98;3.75;;;;;;;;;;4921426;28;20031;-86
2023/07/05 14:32:39;;;;;;;23.70;4.55;;;;;;;;;;4934491;28;20122;-83